createdAt,value
2022-11-14T00:01:13.428Z,97835.41
2022-11-14T00:03:40.310Z,97837.34
2022-11-14T00:06:07.938Z,97832.63
2022-11-14T00:08:35.126Z,97827.88
2022-11-14T00:11:01.783Z,97839.66
2022-11-14T00:13:28.316Z,97814.09
2022-11-14T00:15:57.713Z,97822.88
2022-11-14T00:18:27.287Z,97825.06
2022-11-14T00:20:57.028Z,97811.16
2022-11-14T00:23:27.477Z,97831.53
2022-11-14T00:25:57.035Z,97824.13
2022-11-14T00:28:26.030Z,97772.13
2022-11-14T00:30:52.550Z,97814.88
2022-11-14T00:33:20.712Z,97817.22
2022-11-14T00:35:52.320Z,97797.56
2022-11-14T00:38:18.852Z,97830.81
2022-11-14T00:40:45.654Z,97817.88
2022-11-14T00:43:12.218Z,97814.88
2022-11-14T00:45:38.913Z,97792.78
2022-11-14T00:48:05.709Z,97781.38
2022-11-14T00:50:32.249Z,97779.69
2022-11-14T00:52:58.863Z,97792.97
2022-11-14T00:55:28.363Z,97765.72
2022-11-14T00:57:56.073Z,97784.75
2022-11-14T01:00:22.845Z,97796.75
2022-11-14T01:02:49.458Z,97790.78
2022-11-14T01:05:16.068Z,97807.56
2022-11-14T01:07:42.611Z,97802.16
2022-11-14T01:10:09.904Z,97773.69
2022-11-14T01:12:36.470Z,97798.59
2022-11-14T01:15:03.082Z,97756.09
2022-11-14T01:17:29.821Z,97788.78
2022-11-14T01:19:58.533Z,97780.91
2022-11-14T01:22:25.256Z,97764.88
2022-11-14T01:24:51.850Z,97764.78
2022-11-14T01:27:18.480Z,97782.97
2022-11-14T01:29:45.065Z,97792.06
2022-11-14T01:32:11.668Z,97791.16
2022-11-14T01:34:38.249Z,97765.88
2022-11-14T01:37:04.839Z,97769.13
2022-11-14T01:39:31.368Z,97752.44
2022-11-14T01:42:02.027Z,97747.88
2022-11-14T01:44:52.528Z,97775.66
2022-11-14T01:47:22.417Z,97782.78
2022-11-14T01:49:59.299Z,97754.31
2022-11-14T01:52:34.682Z,97732.88
2022-11-14T01:55:04.841Z,97776.72
2022-11-14T01:57:36.390Z,97746.44
2022-11-14T02:00:08.839Z,97730.22
2022-11-14T02:02:36.622Z,97768.19
2022-11-14T02:05:07.690Z,97763.81
2022-11-14T02:07:37.119Z,97741.50
2022-11-14T02:10:09.124Z,97765.78
2022-11-14T02:12:36.420Z,97759.41
2022-11-14T02:15:03.832Z,97763.78
2022-11-14T02:17:33.031Z,97717.09
2022-11-14T02:20:11.923Z,97761.16
2022-11-14T02:22:40.674Z,97749.06
2022-11-14T02:25:08.899Z,97747.13
2022-11-14T02:27:37.768Z,97750.56
2022-11-14T02:30:17.303Z,97723.03
2022-11-14T02:33:10.179Z,97744.97
2022-11-14T02:35:32.331Z,97734.72
2022-11-14T02:37:58.896Z,97734.09
2022-11-14T02:40:25.464Z,97735.56
2022-11-14T02:42:52.011Z,97702.09
2022-11-14T02:45:20.909Z,97720.66
2022-11-14T02:47:47.566Z,97695.84
2022-11-14T02:50:14.606Z,97720.22
2022-11-14T02:52:41.136Z,97714.69
2022-11-14T02:55:08.168Z,97721.38
2022-11-14T02:57:34.848Z,97708.09
2022-11-14T03:00:04.428Z,97691.72
2022-11-14T03:02:33.928Z,97700.13
2022-11-14T03:05:00.468Z,97687.03
2022-11-14T03:07:27.126Z,97655.53
2022-11-14T03:09:53.742Z,97693.81
2022-11-14T03:12:20.623Z,97681.91
2022-11-14T03:14:47.339Z,97698.38
2022-11-14T03:17:13.927Z,97679.19
2022-11-14T03:19:40.549Z,97702.28
2022-11-14T03:22:07.324Z,97691.56
2022-11-14T03:24:36.936Z,97703.72
2022-11-14T03:27:07.353Z,97706.59
2022-11-14T03:29:37.323Z,97671.69
2022-11-14T03:32:06.832Z,97693.69
2022-11-14T03:34:36.577Z,97705.59
2022-11-14T03:37:05.299Z,97698.16
2022-11-14T03:39:32.002Z,97695.06
2022-11-14T03:41:58.554Z,97669.59
2022-11-14T03:44:25.122Z,97645.22
2022-11-14T03:46:52.680Z,97684.19
2022-11-14T03:49:19.298Z,97666.22
2022-11-14T03:51:45.922Z,97670.38
2022-11-14T03:54:12.443Z,97653.63
2022-11-14T03:56:38.990Z,97658.31
2022-11-14T03:59:08.625Z,97680.09
2022-11-14T04:01:37.218Z,97654.28
2022-11-14T04:04:03.811Z,97650.03
2022-11-14T04:06:30.422Z,97659.00
2022-11-14T04:08:56.984Z,97677.03
2022-11-14T04:11:23.554Z,97645.97
2022-11-14T04:13:50.160Z,97676.16
2022-11-14T04:16:16.728Z,97647.69
2022-11-14T04:18:43.344Z,97634.00
2022-11-14T04:21:09.928Z,97654.28
2022-11-14T04:23:39.429Z,97644.22
2022-11-14T04:26:08.677Z,97626.03
2022-11-14T04:28:35.371Z,97646.75
2022-11-14T04:31:01.936Z,97672.56
2022-11-14T04:33:28.612Z,97656.59
2022-11-14T04:35:55.179Z,97671.84
2022-11-14T04:38:21.748Z,97673.84
2022-11-14T04:40:52.420Z,97666.59
2022-11-14T04:43:20.513Z,97674.84
2022-11-14T04:45:47.453Z,97669.53
2022-11-14T04:48:14.095Z,97641.88
2022-11-14T04:50:40.647Z,97670.03
2022-11-14T04:53:09.482Z,97652.28
2022-11-14T04:55:36.094Z,97646.88
2022-11-14T04:58:02.714Z,97681.03
2022-11-14T05:00:29.305Z,97661.41
2022-11-14T05:02:58.382Z,97666.97
2022-11-14T05:05:24.938Z,97670.53
2022-11-14T05:07:51.496Z,97662.03
2022-11-14T05:10:18.204Z,97635.84
2022-11-14T05:12:44.802Z,97659.66
2022-11-14T05:15:11.478Z,97626.66
2022-11-14T05:17:38.052Z,97649.53
2022-11-14T05:20:05.025Z,97658.13
2022-11-14T05:22:31.592Z,97665.19
2022-11-14T05:24:58.125Z,97640.53
2022-11-14T05:27:24.689Z,97610.81
2022-11-14T05:29:51.225Z,97626.31
2022-11-14T05:32:17.847Z,97651.91
2022-11-14T05:34:44.498Z,97633.63
2022-11-14T05:37:14.072Z,97639.41
2022-11-14T05:39:43.446Z,97648.91
2022-11-14T05:42:12.168Z,97652.81
2022-11-14T05:44:38.709Z,97648.13
2022-11-14T05:47:05.288Z,97644.31
2022-11-14T05:49:32.303Z,97650.59
2022-11-14T05:51:59.326Z,97605.34
2022-11-14T05:54:26.242Z,97628.75
2022-11-14T05:56:53.103Z,97634.72
2022-11-14T05:59:19.978Z,97628.66
2022-11-14T06:01:46.966Z,97625.72
2022-11-14T06:04:16.714Z,97653.00
2022-11-14T06:06:46.775Z,97648.53
2022-11-14T06:09:16.266Z,97622.00
2022-11-14T06:11:45.940Z,97641.72
2022-11-14T06:14:15.737Z,97655.63
2022-11-14T06:16:46.932Z,97661.53
2022-11-14T06:19:16.846Z,97625.41
2022-11-14T06:21:50.036Z,97618.69
2022-11-14T06:24:16.809Z,97659.16
2022-11-14T06:26:46.581Z,97659.78
2022-11-14T06:29:16.588Z,97669.41
2022-11-14T06:31:47.287Z,97657.38
2022-11-14T06:34:16.989Z,97669.25
2022-11-14T06:36:46.879Z,97617.75
2022-11-14T06:39:16.768Z,97667.47
2022-11-14T06:41:43.287Z,97659.94
2022-11-14T06:44:10.167Z,97667.56
2022-11-14T06:46:36.709Z,97679.31
2022-11-14T06:49:03.339Z,97658.78
2022-11-14T06:51:29.881Z,97673.94
2022-11-14T06:53:56.600Z,97679.38
2022-11-14T06:56:25.744Z,97666.38
2022-11-14T06:58:52.222Z,97686.09
2022-11-14T07:01:23.479Z,97672.69
2022-11-14T07:03:50.384Z,97671.72
2022-11-14T07:06:19.930Z,97692.28
2022-11-14T07:08:49.321Z,97682.88
2022-11-14T07:11:26.544Z,97690.84
2022-11-14T07:13:58.463Z,97670.13
2022-11-14T07:16:31.742Z,97676.94
2022-11-14T07:18:59.215Z,97678.47
2022-11-14T07:21:26.942Z,97684.56
2022-11-14T07:23:53.442Z,97689.81
2022-11-14T07:26:19.963Z,97683.41
2022-11-14T07:28:52.423Z,97696.59
2022-11-14T07:31:21.802Z,97679.63
2022-11-14T07:33:49.170Z,97699.38
2022-11-14T07:36:18.206Z,97687.38
2022-11-14T07:38:44.739Z,97671.34
2022-11-14T07:41:14.456Z,97690.63
2022-11-14T07:43:41.582Z,97692.31
2022-11-14T07:46:10.256Z,97698.31
2022-11-14T07:48:36.817Z,97693.34
2022-11-14T07:51:06.782Z,97701.97
2022-11-14T07:53:34.143Z,97694.19
2022-11-14T07:56:05.880Z,97705.34
2022-11-14T07:58:34.825Z,97704.75
2022-11-14T08:01:02.604Z,97705.19
2022-11-14T08:03:29.632Z,97712.34
2022-11-14T08:06:06.990Z,97719.84
2022-11-14T08:08:33.968Z,97724.00
2022-11-14T08:11:01.427Z,97719.94
2022-11-14T08:13:33.419Z,97714.50
2022-11-14T08:16:09.332Z,97727.84
2022-11-14T08:18:37.557Z,97722.88
2022-11-14T08:21:05.572Z,97727.38
2022-11-14T08:23:32.168Z,97725.31
2022-11-14T08:25:59.922Z,97731.13
2022-11-14T08:28:26.530Z,97724.78
2022-11-14T08:30:53.044Z,97734.66
2022-11-14T08:33:23.853Z,97727.19
2022-11-14T08:35:53.277Z,97733.94
2022-11-14T08:38:21.285Z,97737.19
2022-11-14T08:40:47.847Z,97725.97
2022-11-14T08:43:14.631Z,97713.63
2022-11-14T08:45:41.177Z,97742.88
2022-11-14T08:48:07.738Z,97730.78
2022-11-14T08:50:34.723Z,97732.47
2022-11-14T08:53:01.223Z,97731.47
2022-11-14T08:55:27.732Z,97737.84
2022-11-14T08:57:54.764Z,97732.31
2022-11-14T09:00:24.767Z,97738.31
2022-11-14T09:02:56.533Z,97735.63
2022-11-14T09:05:23.194Z,97710.59
2022-11-14T09:07:49.792Z,97711.78
2022-11-14T09:10:17.488Z,97735.22
2022-11-14T09:12:43.998Z,97732.75
2022-11-14T09:15:11.153Z,97739.34
2022-11-14T09:17:38.051Z,97730.28
2022-11-14T09:20:05.418Z,97740.75
2022-11-14T09:22:32.171Z,97742.81
2022-11-14T09:24:59.094Z,97738.84
2022-11-14T09:27:27.765Z,97744.41
2022-11-14T09:29:54.527Z,97736.75
2022-11-14T09:32:23.077Z,97746.19
2022-11-14T09:34:50.172Z,97757.72
2022-11-14T09:37:16.898Z,97749.91
2022-11-14T09:39:43.653Z,97746.44
2022-11-14T09:42:24.501Z,97751.56
2022-11-14T09:44:56.726Z,97757.56
2022-11-14T09:47:29.466Z,97770.09
2022-11-14T09:50:02.833Z,97769.59
2022-11-14T09:52:46.399Z,97769.31
2022-11-14T09:55:18.656Z,97757.97
2022-11-14T09:57:46.417Z,97756.63
2022-11-14T10:00:19.837Z,97756.00
2022-11-14T10:02:47.533Z,97764.47
2022-11-14T10:05:51.504Z,97767.50
2022-11-14T10:08:29.624Z,97766.66
2022-11-14T10:11:01.866Z,97762.63
2022-11-14T10:13:31.813Z,97764.09
2022-11-14T10:16:06.028Z,97765.22
2022-11-14T10:18:44.318Z,97755.38
2022-11-14T10:21:44.679Z,97757.81
2022-11-14T10:24:36.982Z,97766.38
2022-11-14T10:27:20.381Z,97758.59
2022-11-14T10:30:04.667Z,97757.47
2022-11-14T10:32:59.147Z,97748.75
2022-11-14T10:35:40.932Z,97749.38
2022-11-14T10:38:07.479Z,97749.47
2022-11-14T10:40:40.952Z,97739.69
2022-11-14T10:43:27.120Z,97729.50
2022-11-14T10:46:13.657Z,97735.91
2022-11-14T10:48:49.153Z,97733.16
2022-11-14T10:51:26.753Z,97728.38
2022-11-14T10:54:15.446Z,97733.63
2022-11-14T10:56:53.805Z,97735.56
2022-11-14T10:59:21.364Z,97728.19
2022-11-14T11:01:50.977Z,97735.03
2022-11-14T11:04:32.580Z,97716.69
2022-11-14T11:07:39.710Z,97725.34
2022-11-14T11:10:26.535Z,97721.50
2022-11-14T11:12:54.502Z,97718.31
2022-11-14T11:15:24.891Z,97716.94
2022-11-14T11:18:01.185Z,97719.84
2022-11-14T11:20:36.088Z,97712.69
2022-11-14T11:23:03.482Z,97720.31
2022-11-14T11:25:32.987Z,97694.41
2022-11-14T11:28:16.108Z,97711.09
2022-11-14T11:31:04.911Z,97703.47
2022-11-14T11:33:34.385Z,97703.00
2022-11-14T11:36:05.251Z,97699.84
2022-11-14T11:38:33.303Z,97682.09
2022-11-14T11:44:17.094Z,97704.69
2022-11-14T11:46:53.826Z,97704.75
2022-11-14T11:49:29.417Z,97704.56
2022-11-14T11:52:01.462Z,97704.88
2022-11-14T11:54:50.468Z,97695.47
2022-11-14T11:57:21.915Z,97708.31
2022-11-14T11:59:54.203Z,97683.09
2022-11-14T12:02:24.802Z,97687.31
2022-11-14T12:04:54.785Z,97696.50
2022-11-14T12:07:31.017Z,97683.91
2022-11-14T12:10:10.266Z,97674.22
2022-11-14T12:12:55.199Z,97680.19
2022-11-14T12:15:50.077Z,97669.25
2022-11-14T12:18:44.132Z,97676.38
2022-11-14T12:22:02.285Z,97670.22
2022-11-14T12:24:40.978Z,97662.72
2022-11-14T12:27:19.378Z,97667.19
2022-11-14T12:30:01.603Z,97659.00
2022-11-14T12:32:44.173Z,97655.69
2022-11-14T12:35:21.127Z,97661.38
2022-11-14T12:37:55.380Z,97649.91
2022-11-14T12:40:32.156Z,97650.88
2022-11-14T12:43:01.630Z,97656.41
2022-11-14T12:45:42.962Z,97655.97
2022-11-14T12:48:37.065Z,97635.22
2022-11-14T12:51:06.542Z,97639.16
2022-11-14T12:53:40.308Z,97637.69
2022-11-14T12:56:21.196Z,97625.19
2022-11-14T12:59:03.743Z,97622.72
2022-11-14T13:01:36.190Z,97621.28
2022-11-14T13:04:38.593Z,97616.06
2022-11-14T13:07:26.710Z,97614.81
2022-11-14T13:10:16.203Z,97621.06
2022-11-14T13:13:15.434Z,97612.56
2022-11-14T13:16:11.553Z,97612.88
2022-11-14T13:19:26.508Z,97562.50
2022-11-14T13:22:11.375Z,97602.41
2022-11-14T13:24:57.604Z,97601.91
2022-11-14T13:27:52.243Z,97593.38
2022-11-14T13:30:15.785Z,97590.84
2022-11-14T13:32:42.294Z,97587.78
2022-11-14T13:35:13.546Z,97591.66
2022-11-14T13:38:17.498Z,97583.03
2022-11-14T13:41:02.078Z,97569.50
2022-11-14T13:43:46.592Z,97579.66
2022-11-14T13:46:41.866Z,97577.78
2022-11-14T13:49:17.448Z,97587.47
2022-11-14T13:51:45.512Z,97581.75
2022-11-14T13:54:17.632Z,97581.03
2022-11-14T13:57:05.791Z,97581.44
2022-11-14T14:00:02.154Z,97593.78
2022-11-14T14:03:07.528Z,97586.19
2022-11-14T14:05:52.332Z,97588.25
2022-11-14T14:09:15.758Z,97589.44
2022-11-14T14:12:01.494Z,97586.84
2022-11-14T14:14:47.915Z,97587.94
2022-11-14T14:17:44.444Z,97589.16
2022-11-14T14:20:22.062Z,97595.41
2022-11-14T14:22:57.651Z,97589.00
2022-11-14T14:25:33.206Z,97593.72
2022-11-14T14:28:19.517Z,97598.53
2022-11-14T14:31:24.994Z,97606.50
2022-11-14T14:33:52.591Z,97615.94
2022-11-14T14:36:25.826Z,97628.81
2022-11-14T14:39:20.283Z,97631.53
2022-11-14T14:41:48.057Z,97618.50
2022-11-14T14:44:20.179Z,97625.94
2022-11-14T14:46:46.935Z,97628.84
2022-11-14T14:49:31.395Z,97626.00
2022-11-14T14:51:58.951Z,97620.47
2022-11-14T14:54:32.238Z,97627.66
2022-11-14T14:57:17.842Z,97619.84
2022-11-14T14:59:47.680Z,97617.00
2022-11-14T15:02:17.773Z,97636.47
2022-11-14T15:04:44.478Z,97619.84
2022-11-14T15:07:23.723Z,97630.94
2022-11-14T15:10:02.649Z,97602.22
2022-11-14T15:12:34.127Z,97624.38
2022-11-14T15:15:09.050Z,97628.47
2022-11-14T15:17:36.166Z,97623.53
2022-11-14T15:20:03.202Z,97637.47
2022-11-14T15:22:33.174Z,97624.16
2022-11-14T15:25:12.032Z,97628.03
2022-11-14T15:27:54.809Z,97618.75
2022-11-14T15:30:25.904Z,97624.50
2022-11-14T15:33:02.269Z,97618.94
2022-11-14T15:35:35.294Z,97616.31
2022-11-14T15:41:22.016Z,97622.72
2022-11-14T15:43:53.294Z,97607.03
2022-11-14T15:46:27.615Z,97616.69
2022-11-14T15:48:54.673Z,97613.22
2022-11-14T15:51:39.227Z,97625.38
2022-11-14T15:54:06.848Z,97610.63
2022-11-14T15:56:33.362Z,97620.00
2022-11-14T15:59:02.357Z,97606.22
2022-11-14T16:01:28.943Z,97607.84
2022-11-14T16:03:55.501Z,97605.00
2022-11-14T16:06:22.126Z,97623.84
2022-11-14T16:08:48.651Z,97632.47
2022-11-14T16:11:16.398Z,97626.50
2022-11-14T16:13:42.892Z,97632.66
2022-11-14T16:16:09.716Z,97633.22
2022-11-14T16:18:36.224Z,97631.59
2022-11-14T16:21:08.855Z,97639.69
2022-11-14T16:23:35.372Z,97635.69
2022-11-14T16:26:05.327Z,97651.56
2022-11-14T16:28:34.522Z,97661.22
2022-11-14T16:31:10.697Z,97656.53
2022-11-14T16:33:37.246Z,97653.69
2022-11-14T16:36:04.270Z,97655.38
2022-11-14T16:38:34.122Z,97662.13
2022-11-14T16:41:01.789Z,97654.69
2022-11-14T16:43:28.542Z,97670.66
2022-11-14T16:45:55.264Z,97666.56
2022-11-14T16:48:21.853Z,97669.06
2022-11-14T16:50:51.756Z,97677.50
2022-11-14T16:53:20.674Z,97673.34
2022-11-14T16:55:47.310Z,97656.72
2022-11-14T16:58:13.835Z,97651.59
2022-11-14T17:00:43.400Z,97647.13
2022-11-14T17:03:11.721Z,97627.22
2022-11-14T17:05:46.403Z,97629.97
2022-11-14T17:08:13.003Z,97636.84
2022-11-14T17:10:46.907Z,97630.66
2022-11-14T17:13:14.399Z,97643.59
2022-11-14T17:15:40.908Z,97666.75
2022-11-14T17:18:07.404Z,97663.25
2022-11-14T17:20:33.993Z,97666.31
2022-11-14T17:23:02.834Z,97661.72
2022-11-14T17:25:31.686Z,97668.41
2022-11-14T17:27:58.193Z,97660.47
2022-11-14T17:30:24.753Z,97653.66
2022-11-14T17:32:56.163Z,97658.69
2022-11-14T17:35:23.078Z,97655.81
2022-11-14T17:37:49.644Z,97658.44
2022-11-14T17:40:16.335Z,97676.09
2022-11-14T17:42:42.896Z,97668.72
2022-11-14T17:45:09.707Z,97681.72
2022-11-14T17:47:36.467Z,97678.69
2022-11-14T17:50:03.513Z,97691.59
2022-11-14T17:52:32.087Z,97670.16
2022-11-14T17:54:58.604Z,97682.25
2022-11-14T17:57:25.113Z,97671.97
2022-11-14T17:59:51.620Z,97669.88
2022-11-14T18:02:19.332Z,97679.50
2022-11-14T18:04:47.104Z,97672.41
2022-11-14T18:07:13.677Z,97677.59
2022-11-14T18:09:41.373Z,97682.41
2022-11-14T18:12:07.917Z,97693.94
2022-11-14T18:14:35.554Z,97685.19
2022-11-14T18:17:12.814Z,97691.81
2022-11-14T18:19:40.289Z,97686.22
2022-11-14T18:22:06.886Z,97698.34
2022-11-14T18:24:36.356Z,97700.09
2022-11-14T18:27:05.858Z,97690.00
2022-11-14T18:29:35.795Z,97696.97
2022-11-14T18:32:05.731Z,97700.28
2022-11-14T18:34:38.539Z,97698.63
2022-11-14T18:37:05.129Z,97695.31
2022-11-14T18:39:33.781Z,97697.34
2022-11-14T18:42:03.574Z,97707.44
2022-11-14T18:44:30.427Z,97699.66
2022-11-14T18:47:00.060Z,97707.56
2022-11-14T18:49:28.316Z,97715.66
2022-11-14T18:51:56.468Z,97726.88
2022-11-14T18:54:23.991Z,97722.69
2022-11-14T18:56:50.984Z,97726.56
2022-11-14T18:59:17.952Z,97730.69
2022-11-14T19:01:46.878Z,97711.78
2022-11-14T19:04:14.030Z,97728.41
2022-11-14T19:06:40.892Z,97734.66
2022-11-14T19:09:11.764Z,97725.53
2022-11-14T19:11:57.590Z,97733.50
2022-11-14T19:14:24.483Z,97706.13
2022-11-14T19:16:51.050Z,97732.72
2022-11-14T19:19:17.650Z,97711.78
2022-11-14T19:21:44.220Z,97714.56
2022-11-14T19:24:10.824Z,97719.41
2022-11-14T19:26:37.455Z,97707.97
2022-11-14T19:29:14.822Z,97735.19
2022-11-14T19:31:42.281Z,97729.63
2022-11-14T19:34:10.043Z,97727.75
2022-11-14T19:36:58.794Z,97733.13
2022-11-14T19:39:25.955Z,97725.88
2022-11-14T19:41:52.564Z,97709.53
2022-11-14T19:44:19.103Z,97706.97
2022-11-14T19:46:47.857Z,97710.72
2022-11-14T19:49:14.805Z,97718.94
2022-11-14T19:51:41.315Z,97722.59
2022-11-14T19:54:10.426Z,97695.13
2022-11-14T19:56:40.190Z,97721.09
2022-11-14T19:59:14.374Z,97726.13
2022-11-14T20:01:42.222Z,97713.28
2022-11-14T20:04:12.650Z,97705.59
2022-11-14T20:06:39.552Z,97725.38
2022-11-14T20:09:09.495Z,97732.44
2022-11-14T20:11:43.655Z,97721.44
2022-11-14T20:14:12.251Z,97715.78
2022-11-14T20:16:38.878Z,97696.50
2022-11-14T20:19:07.794Z,97726.19
2022-11-14T20:21:36.303Z,97702.03
2022-11-14T20:24:02.988Z,97721.94
2022-11-14T20:26:29.607Z,97710.78
2022-11-14T20:28:56.288Z,97726.81
2022-11-14T20:31:25.345Z,97727.00
2022-11-14T20:33:53.423Z,97725.97
2022-11-14T20:36:22.246Z,97708.41
2022-11-14T20:38:49.407Z,97704.41
2022-11-14T20:41:16.996Z,97715.22
2022-11-14T20:43:43.714Z,97719.03
2022-11-14T20:46:14.597Z,97719.78
2022-11-14T20:48:42.160Z,97712.56
2022-11-14T20:51:11.697Z,97718.66
2022-11-14T20:53:41.960Z,97707.94
2022-11-14T20:56:13.217Z,97716.81
2022-11-14T20:58:45.876Z,97700.34
2022-11-14T21:01:13.538Z,97718.97
2022-11-14T21:03:40.136Z,97706.78
2022-11-14T21:06:14.617Z,97718.34
2022-11-14T21:08:41.899Z,97732.22
2022-11-14T21:11:18.395Z,97731.31
2022-11-14T21:13:57.460Z,97727.09
2022-11-14T21:16:40.372Z,97725.47
2022-11-14T21:19:10.813Z,97696.28
2022-11-14T21:21:41.031Z,97720.72
2022-11-14T21:24:10.682Z,97703.13
2022-11-14T21:26:39.452Z,97706.06
2022-11-14T21:29:13.595Z,97725.47
2022-11-14T21:31:43.228Z,97734.06
2022-11-14T21:34:12.161Z,97703.47
2022-11-14T21:36:46.381Z,97712.59
2022-11-14T21:39:15.208Z,97718.41
2022-11-14T21:41:42.690Z,97690.88
2022-11-14T21:44:13.025Z,97719.19
2022-11-14T21:46:41.514Z,97714.78
2022-11-14T21:49:10.940Z,97709.88
2022-11-14T21:51:41.603Z,97688.19
2022-11-14T21:54:10.534Z,97719.41
2022-11-14T21:56:44.710Z,97725.19
2022-11-14T21:59:18.731Z,97714.72
2022-11-14T22:02:06.611Z,97711.78
2022-11-14T22:04:34.040Z,97714.69
2022-11-14T22:07:06.028Z,97719.38
2022-11-14T22:09:33.502Z,97706.09
2022-11-14T22:12:00.892Z,97706.66
2022-11-14T22:14:27.448Z,97699.81
2022-11-14T22:16:54.019Z,97717.09
2022-11-14T22:19:20.623Z,97717.41
2022-11-14T22:21:47.146Z,97692.59
2022-11-14T22:24:13.666Z,97712.09
2022-11-14T22:26:41.336Z,97710.09
2022-11-14T22:29:08.583Z,97716.53
2022-11-14T22:31:35.425Z,97721.84
2022-11-14T22:34:01.992Z,97703.38
2022-11-14T22:36:28.575Z,97702.53
2022-11-14T22:38:56.773Z,97715.91
2022-11-14T22:41:32.290Z,97712.78
2022-11-14T22:44:00.528Z,97713.09
2022-11-14T22:46:27.679Z,97709.25
2022-11-14T22:48:55.120Z,97712.44
2022-11-14T22:51:28.125Z,97707.78
2022-11-14T22:53:56.556Z,97710.91
2022-11-14T22:56:25.522Z,97700.41
2022-11-14T22:58:52.264Z,97675.69
2022-11-14T23:01:20.509Z,97692.91
2022-11-14T23:03:50.941Z,97674.41
2022-11-14T23:06:18.826Z,97690.53
2022-11-14T23:08:45.761Z,97687.59
2022-11-14T23:11:16.883Z,97658.41
2022-11-14T23:13:48.942Z,97679.13
2022-11-14T23:16:21.309Z,97654.97
2022-11-14T23:18:48.108Z,97662.81
2022-11-14T23:21:17.758Z,97672.06
2022-11-14T23:23:52.830Z,97664.94
2022-11-14T23:26:19.419Z,97654.25
2022-11-14T23:28:45.952Z,97662.53
2022-11-14T23:31:13.378Z,97660.47
2022-11-14T23:33:39.900Z,97644.75
2022-11-14T23:36:06.498Z,97653.75
2022-11-14T23:38:33.027Z,97639.44
2022-11-14T23:41:01.598Z,97644.31
2022-11-14T23:43:29.856Z,97656.28
2022-11-14T23:45:57.828Z,97632.78
2022-11-14T23:48:24.766Z,97649.13
2022-11-14T23:50:56.061Z,97661.13
2022-11-14T23:53:22.982Z,97649.44
2022-11-14T23:56:00.958Z,97643.03
2022-11-14T23:58:29.381Z,97640.97
